Zeeland, Netherlands
Current Conditions -  °F | °C
As of 1:07 AM on Monday 26 Jan 2015 (Local Time) from EHVK Reporting Station
Haze Haze  
Wind Chill: 32°   Ceiling: 600
Heat Index: 37°   Visibility: 3mi
Dew Point: 37°   Wind: 7mph
Humidity: 100%   Direction: 190°S
Pressure: 30.27"   Gusts: NA
Location:  51.7°N, 5.68°E
Report Text: EHVK 260007Z AUTO 19006KT 5000 BR FEW004 BKN006 OVC007 03/03 Q1025 YLO
Loading
Personal Weather Stations






























Interactive Weather Map New forecast layout! Learn more

10-Day Weather Forecast

Advertisements
Track Severe Weather on mobile